Time;durP1;ratioP1;P1;durP2;ratioP2;P2;SDS_P1;SDS_P2;PMS_P1;PMS_P2;Temp;Humidity;BMP_temperature;BMP_pressure;BME280_temperature;BME280_humidity;BME280_pressure;Samples;Min_cycle;Max_cycle;Signal;HPM_P1;HPM_P2
2021/09/14 00:01:27;;;;;;;4.65;2.38;;;13.10;99.90;;;;;;4969217;28;20388;-83
2021/09/14 00:03:52;;;;;;;5.05;2.15;;;13.10;99.90;;;;;;4953390;28;20125;-83
2021/09/14 00:06:18;;;;;;;5.07;2.95;;;13.10;99.90;;;;;;4986615;28;20027;-82
2021/09/14 00:08:44;;;;;;;5.10;2.83;;;13.10;99.90;;;;;;4953557;28;20066;-82
2021/09/14 00:11:10;;;;;;;4.47;2.85;;;13.20;99.90;;;;;;4953535;28;20030;-82
2021/09/14 00:13:37;;;;;;;6.18;2.90;;;13.20;99.90;;;;;;4969223;28;20035;-82
2021/09/14 00:16:03;;;;;;;4.65;2.95;;;13.20;99.90;;;;;;4969368;28;20123;-82
2021/09/14 00:18:28;;;;;;;5.35;3.42;;;13.10;99.90;;;;;;4953343;28;20031;-82
2021/09/14 00:20:54;;;;;;;4.80;3.30;;;13.10;99.90;;;;;;4986351;28;20038;-82
2021/09/14 00:23:19;;;;;;;4.68;3.47;;;13.10;99.90;;;;;;4969269;28;20046;-82
2021/09/14 00:25:45;;;;;;;6.70;3.40;;;13.10;99.90;;;;;;4969292;28;20251;-82
2021/09/14 00:28:11;;;;;;;7.07;3.47;;;13.10;99.90;;;;;;4969162;28;20201;-81
2021/09/14 00:30:37;;;;;;;5.72;4.03;;;13.10;99.90;;;;;;4969301;28;20063;-82
2021/09/14 00:33:02;;;;;;;6.95;3.72;;;13.10;99.90;;;;;;4969169;28;20129;-82
2021/09/14 00:35:28;;;;;;;5.35;3.78;;;13.10;99.90;;;;;;4969236;28;20031;-82
2021/09/14 00:37:53;;;;;;;6.65;3.85;;;13.00;99.90;;;;;;4968891;28;20030;-81
2021/09/14 00:40:19;;;;;;;7.82;4.63;;;13.00;99.90;;;;;;4969161;28;20026;-82
2021/09/14 00:42:45;;;;;;;5.35;4.00;;;13.00;99.90;;;;;;4969130;28;20049;-83
2021/09/14 00:45:12;;;;;;;6.55;3.72;;;13.00;99.90;;;;;;4985112;28;20043;-81
2021/09/14 00:47:37;;;;;;;6.03;4.07;;;13.00;99.90;;;;;;4968924;28;20306;-81
2021/09/14 00:50:06;;;;;;;7.55;3.95;;;13.00;99.90;;;;;;4953083;28;20034;-81
2021/09/14 00:52:36;;;;;;;6.38;3.67;;;13.00;99.90;;;;;;4984770;28;20065;-81
2021/09/14 00:55:04;;;;;;;7.80;4.35;;;12.90;99.90;;;;;;4988001;28;20526;-82
2021/09/14 00:57:29;;;;;;;6.57;3.75;;;13.00;99.90;;;;;;4987437;28;20041;-82
2021/09/14 00:59:55;;;;;;;7.80;4.40;;;12.90;99.90;;;;;;4969112;28;20043;-82
2021/09/14 01:02:21;;;;;;;6.50;4.53;;;12.90;99.90;;;;;;4968958;28;20054;-82
2021/09/14 01:04:47;;;;;;;5.07;3.78;;;12.80;99.90;;;;;;4953019;28;20065;-81
2021/09/14 01:07:12;;;;;;;5.65;3.67;;;12.80;99.90;;;;;;4953014;28;20422;-83
2021/09/14 01:09:39;;;;;;;6.53;3.38;;;12.80;99.90;;;;;;4953053;28;20042;-82
2021/09/14 01:12:06;;;;;;;6.30;3.42;;;12.70;99.90;;;;;;4953728;28;20119;-82
2021/09/14 01:14:32;;;;;;;5.07;3.08;;;12.70;99.90;;;;;;4956103;28;20035;-82
2021/09/14 01:16:57;;;;;;;5.43;3.60;;;12.70;99.90;;;;;;4956317;28;20042;-81
2021/09/14 01:19:23;;;;;;;5.75;3.60;;;12.70;99.90;;;;;;4956015;28;20282;-81
2021/09/14 01:21:49;;;;;;;4.60;2.75;;;12.70;99.90;;;;;;4956211;28;20046;-81
2021/09/14 01:24:15;;;;;;;7.78;4.07;;;12.70;99.90;;;;;;4971966;28;20034;-82
2021/09/14 01:26:54;;;;;;;7.60;4.20;;;12.70;99.90;;;;;;4958287;28;20057;-82
2021/09/14 01:32:11;;;;;;;5.75;3.22;;;12.70;99.90;;;;;;4988048;28;20042;-81
2021/09/14 01:34:37;;;;;;;7.20;4.10;;;12.70;99.90;;;;;;4955931;28;20026;-81
2021/09/14 01:37:03;;;;;;;6.35;3.63;;;12.70;99.90;;;;;;4989419;28;20492;-82
2021/09/14 01:39:32;;;;;;;7.57;4.38;;;12.60;99.90;;;;;;4971627;28;20188;-81
2021/09/14 01:41:58;;;;;;;5.38;3.72;;;12.60;99.90;;;;;;4955754;28;20193;-81
2021/09/14 01:44:24;;;;;;;8.10;4.18;;;12.50;99.90;;;;;;4955245;28;20472;-81
2021/09/14 01:46:52;;;;;;;6.03;3.53;;;12.50;99.90;;;;;;4971597;28;20054;-81
2021/09/14 01:49:18;;;;;;;7.45;4.38;;;12.60;99.90;;;;;;4971497;28;20067;-83
2021/09/14 01:51:43;;;;;;;9.40;3.67;;;12.70;99.90;;;;;;4955438;28;20041;-82
2021/09/14 01:54:10;;;;;;;8.40;4.45;;;12.60;99.90;;;;;;4971310;28;20027;-82
2021/09/14 01:56:38;;;;;;;7.13;3.80;;;12.50;99.90;;;;;;4956296;28;20035;-82
2021/09/14 01:59:04;;;;;;;10.80;4.88;;;12.50;99.90;;;;;;4955592;28;20027;-83
2021/09/14 02:01:38;;;;;;;9.68;4.63;;;12.50;99.90;;;;;;4955695;28;20110;-83
2021/09/14 02:04:11;;;;;;;7.75;4.70;;;12.50;99.90;;;;;;4955871;28;20034;-83
2021/09/14 02:56:14;;;;;;;11.15;5.82;;;12.30;99.90;;;;;;4975314;28;20066;-82
2021/09/14 02:56:34;;;;;;;8.68;5.50;;;12.30;99.90;;;;;;4986939;28;20041;-82
2021/09/14 02:59:00;;;;;;;10.63;6.05;;;12.30;99.90;;;;;;4954929;28;20076;-82
2021/09/14 03:01:26;;;;;;;7.85;5.07;;;12.30;99.90;;;;;;4954613;28;20070;-82
2021/09/14 03:03:54;;;;;;;7.63;4.80;;;12.30;99.90;;;;;;4970799;28;20074;-82
2021/09/14 03:06:20;;;;;;;6.20;4.53;;;12.30;99.90;;;;;;4955094;28;20206;-82
2021/09/14 03:08:47;;;;;;;9.07;4.00;;;12.20;99.90;;;;;;4954991;28;20035;-81
2021/09/14 03:11:17;;;;;;;12.02;6.13;;;12.20;99.90;;;;;;4954787;28;20031;-82
2021/09/14 03:13:58;;;;;;;10.52;6.07;;;12.20;99.90;;;;;;4956435;28;20415;-82
2021/09/14 03:16:25;;;;;;;10.25;6.20;;;12.10;99.90;;;;;;4954464;28;20054;-82
2021/09/14 03:18:51;;;;;;;9.32;5.43;;;12.10;99.90;;;;;;4954387;28;20027;-82
2021/09/14 03:21:17;;;;;;;10.30;6.53;;;12.10;99.90;;;;;;4954010;28;20038;-83
2021/09/14 03:23:43;;;;;;;9.15;5.95;;;12.20;99.90;;;;;;4954515;28;20019;-82
2021/09/14 03:26:10;;;;;;;7.05;4.75;;;12.10;99.90;;;;;;4954142;28;20058;-81
2021/09/14 03:28:36;;;;;;;10.57;6.20;;;12.10;99.90;;;;;;4970197;28;20046;-82
2021/09/14 03:31:02;;;;;;;8.98;5.85;;;12.10;99.90;;;;;;4954072;28;20034;-82
2021/09/14 03:33:29;;;;;;;9.50;5.75;;;12.10;99.90;;;;;;4954170;28;20038;-82
2021/09/14 03:35:55;;;;;;;8.32;5.38;;;12.10;99.90;;;;;;4953598;28;20026;-82
2021/09/14 03:38:21;;;;;;;8.48;5.70;;;12.10;99.90;;;;;;4969874;28;20050;-82
2021/09/14 03:40:47;;;;;;;15.05;6.65;;;12.10;99.90;;;;;;4953766;28;20077;-82
2021/09/14 03:43:13;;;;;;;8.57;5.00;;;12.10;99.90;;;;;;4954129;28;20030;-83
2021/09/14 03:45:44;;;;;;;9.30;5.60;;;12.10;99.90;;;;;;4953601;28;20058;-82
2021/09/14 03:48:11;;;;;;;9.70;5.75;;;12.10;99.90;;;;;;4969916;28;20027;-83
2021/09/14 03:50:37;;;;;;;7.32;5.15;;;12.00;99.90;;;;;;4969636;28;20483;-83
2021/09/14 03:53:03;;;;;;;8.10;4.97;;;12.00;99.90;;;;;;4963956;29;20031;-83
2021/09/14 03:55:29;;;;;;;11.60;6.75;;;12.00;99.90;;;;;;4966543;29;20023;-83
2021/09/14 03:57:57;;;;;;;9.68;6.57;;;12.00;99.90;;;;;;4950525;29;20050;-83
2021/09/14 04:00:22;;;;;;;9.73;6.03;;;11.90;99.90;;;;;;4967491;29;20111;-83
2021/09/14 04:03:08;;;;;;;8.68;5.70;;;11.90;99.90;;;;;;4966489;29;20040;-83
2021/09/14 04:10:41;;;;;;;9.80;5.95;;;12.00;99.90;;;;;;4966014;29;20209;-82
2021/09/14 04:13:08;;;;;;;8.75;5.28;;;11.90;99.90;;;;;;4950621;29;20476;-83
2021/09/14 04:15:34;;;;;;;9.90;6.57;;;11.90;99.90;;;;;;4966060;29;20059;-82
2021/09/14 04:18:05;;;;;;;10.27;5.63;;;11.90;99.90;;;;;;4966240;29;20054;-82
2021/09/14 04:20:32;;;;;;;11.80;6.43;;;11.90;99.90;;;;;;4965923;29;20031;-83
2021/09/14 04:22:59;;;;;;;9.90;6.25;;;11.90;99.90;;;;;;4966257;29;20062;-83
2021/09/14 04:25:26;;;;;;;10.15;6.15;;;11.80;99.90;;;;;;4966248;29;20038;-83
2021/09/14 04:27:51;;;;;;;11.10;6.35;;;11.80;99.90;;;;;;4950212;29;20027;-83
2021/09/14 04:30:17;;;;;;;13.35;6.47;;;11.80;99.90;;;;;;4950133;29;20078;-83
2021/09/14 04:32:45;;;;;;;11.68;7.35;;;11.80;99.90;;;;;;4950327;29;20031;-83
2021/09/14 04:35:11;;;;;;;9.75;6.05;;;11.80;99.90;;;;;;4950365;29;20031;-83
2021/09/14 04:37:37;;;;;;;11.25;6.93;;;11.80;99.90;;;;;;4966242;29;20047;-83
2021/09/14 04:40:05;;;;;;;9.70;6.03;;;11.80;99.90;;;;;;4950210;29;20094;-82
2021/09/14 04:42:30;;;;;;;9.75;5.88;;;11.80;99.90;;;;;;4967235;29;20047;-83
2021/09/14 04:44:57;;;;;;;11.25;6.18;;;11.80;99.90;;;;;;4958317;28;20058;-82
2021/09/14 04:47:23;;;;;;;9.45;4.82;;;11.80;99.90;;;;;;4956353;28;20031;-82
2021/09/14 04:49:49;;;;;;;10.77;7.15;;;11.80;99.90;;;;;;4972854;28;20483;-81
2021/09/14 04:52:15;;;;;;;8.88;5.82;;;11.80;99.90;;;;;;4972687;28;20046;-83
2021/09/14 04:54:41;;;;;;;9.95;6.28;;;11.80;99.90;;;;;;4956762;28;20035;-83
2021/09/14 04:57:07;;;;;;;12.98;7.00;;;11.80;99.90;;;;;;4956628;28;20049;-83
2021/09/14 04:59:33;;;;;;;8.57;5.93;;;11.70;99.90;;;;;;4956877;28;20102;-83
2021/09/14 05:01:59;;;;;;;11.65;6.97;;;11.70;99.90;;;;;;4972413;28;20451;-83
2021/09/14 05:04:25;;;;;;;10.82;6.72;;;11.60;99.90;;;;;;4972804;28;20038;-82
2021/09/14 05:06:50;;;;;;;10.05;6.38;;;11.60;99.90;;;;;;4956611;28;20042;-82
2021/09/14 05:09:16;;;;;;;9.25;5.85;;;11.60;99.90;;;;;;4956598;28;20041;-82
2021/09/14 05:11:46;;;;;;;11.63;6.57;;;11.60;99.90;;;;;;4956945;28;20034;-84
2021/09/14 05:14:12;;;;;;;9.55;5.65;;;11.60;99.90;;;;;;4956440;28;20094;-82
2021/09/14 05:16:56;;;;;;;11.70;7.50;;;11.50;99.90;;;;;;4958825;28;20030;-82
2021/09/14 05:19:51;;;;;;;11.73;7.22;;;11.50;99.90;;;;;;4959624;28;20059;-83
2021/09/14 05:22:20;;;;;;;9.70;6.32;;;11.50;99.90;;;;;;4953230;28;20047;-83
2021/09/14 05:24:46;;;;;;;11.80;7.13;;;11.50;99.90;;;;;;4955662;28;20023;-84
2021/09/14 05:27:12;;;;;;;8.55;6.05;;;11.50;99.90;;;;;;4955466;28;20046;-83
2021/09/14 05:29:38;;;;;;;9.98;5.88;;;11.50;99.90;;;;;;4929630;28;20085;-83
2021/09/14 05:32:04;;;;;;;8.88;5.88;;;11.50;99.90;;;;;;4987021;28;20111;-82
2021/09/14 05:34:32;;;;;;;8.32;6.15;;;11.50;99.90;;;;;;4955738;28;20125;-83
2021/09/14 05:36:58;;;;;;;11.57;5.63;;;11.50;99.90;;;;;;4955239;28;20053;-83
2021/09/14 05:39:24;;;;;;;11.82;6.03;;;11.60;99.90;;;;;;4955335;28;20027;-83
2021/09/14 05:41:52;;;;;;;11.48;6.38;;;11.60;99.90;;;;;;4955415;28;20066;-83
2021/09/14 05:44:18;;;;;;;10.25;6.65;;;11.60;99.90;;;;;;4971024;28;20042;-83
2021/09/14 05:46:44;;;;;;;9.43;6.10;;;11.60;99.90;;;;;;4955197;28;20058;-83
2021/09/14 05:49:11;;;;;;;8.82;5.47;;;11.70;99.90;;;;;;4987387;28;20031;-84
2021/09/14 05:51:37;;;;;;;10.88;6.82;;;11.70;99.90;;;;;;4951164;29;20042;-84
2021/09/14 05:54:04;;;;;;;9.18;5.30;;;11.80;99.90;;;;;;4965699;28;20035;-83
2021/09/14 05:56:32;;;;;;;11.40;6.20;;;11.70;99.90;;;;;;4987056;28;20456;-84
2021/09/14 05:59:05;;;;;;;9.55;6.97;;;11.80;99.90;;;;;;4955500;28;20107;-83
2021/09/14 06:01:30;;;;;;;11.38;7.03;;;11.80;99.90;;;;;;4955028;28;20062;-84
2021/09/14 06:03:56;;;;;;;11.07;7.00;;;11.90;99.90;;;;;;4986666;28;20039;-84
2021/09/14 06:06:23;;;;;;;9.38;6.38;;;12.00;99.90;;;;;;4986764;28;20030;-84
2021/09/14 06:08:49;;;;;;;11.07;7.15;;;12.10;99.90;;;;;;4954598;28;20091;-84
2021/09/14 06:11:15;;;;;;;11.07;6.85;;;12.20;99.90;;;;;;4954797;28;20031;-84
2021/09/14 06:13:42;;;;;;;7.80;5.68;;;12.30;99.90;;;;;;4954649;28;20448;-84
2021/09/14 06:16:10;;;;;;;10.35;6.80;;;12.40;99.90;;;;;;4954813;28;20098;-84
2021/09/14 06:18:36;;;;;;;12.02;6.88;;;12.40;99.90;;;;;;4950521;29;20067;-84
2021/09/14 06:21:04;;;;;;;9.85;6.50;;;12.50;99.90;;;;;;4950920;29;20047;-83
2021/09/14 06:23:30;;;;;;;11.40;6.80;;;12.70;99.90;;;;;;4935012;29;20031;-83
2021/09/14 06:25:56;;;;;;;10.63;6.22;;;12.80;99.90;;;;;;4951344;29;20035;-83
2021/09/14 06:28:22;;;;;;;12.05;7.22;;;12.90;99.90;;;;;;4950947;29;20031;-84
2021/09/14 06:30:48;;;;;;;10.75;7.13;;;12.90;99.90;;;;;;4951042;29;20027;-84
2021/09/14 06:33:17;;;;;;;11.13;7.15;;;13.00;99.90;;;;;;4952145;29;20027;-84
2021/09/14 06:35:48;;;;;;;9.60;6.13;;;13.10;99.90;;;;;;4951263;29;20047;-84
2021/09/14 06:38:22;;;;;;;10.90;6.80;;;13.20;99.90;;;;;;4950993;29;20023;-84
2021/09/14 06:40:49;;;;;;;10.02;6.15;;;13.20;99.90;;;;;;4950727;29;20039;-84
2021/09/14 06:43:15;;;;;;;8.57;5.97;;;13.30;99.90;;;;;;4950480;29;20027;-84
2021/09/14 06:45:46;;;;;;;10.70;6.53;;;13.40;99.90;;;;;;4960168;29;20113;-84
2021/09/14 06:48:21;;;;;;;9.15;5.25;;;13.40;99.90;;;;;;4950590;29;20030;-85
2021/09/14 06:50:48;;;;;;;10.15;7.72;;;13.50;99.90;;;;;;4950267;29;20035;-83
2021/09/14 06:53:14;;;;;;;11.90;8.32;;;13.40;99.90;;;;;;4953662;28;20129;-83
2021/09/14 06:55:40;;;;;;;11.75;7.15;;;13.40;99.90;;;;;;4953510;28;20027;-83
2021/09/14 06:58:06;;;;;;;9.23;6.88;;;13.40;99.90;;;;;;4969387;28;20045;-82
2021/09/14 07:00:31;;;;;;;10.73;6.65;;;13.40;99.90;;;;;;4969441;28;20050;-83
2021/09/14 07:02:57;;;;;;;14.52;8.32;;;13.50;99.90;;;;;;4953552;28;20035;-83
2021/09/14 07:05:24;;;;;;;9.38;6.78;;;13.60;99.90;;;;;;4953111;28;20483;-83
2021/09/14 07:07:50;;;;;;;9.98;6.90;;;13.60;99.90;;;;;;4969577;28;20082;-83
2021/09/14 07:10:16;;;;;;;11.25;7.88;;;13.70;99.90;;;;;;4952474;28;20034;-83
2021/09/14 07:12:41;;;;;;;12.00;8.65;;;13.60;99.90;;;;;;4969539;28;20039;-83
2021/09/14 07:15:07;;;;;;;9.95;7.63;;;13.70;99.90;;;;;;4953031;28;20042;-83
2021/09/14 07:17:33;;;;;;;11.32;7.60;;;13.80;99.90;;;;;;4986927;28;20062;-84
2021/09/14 07:19:59;;;;;;;9.93;7.18;;;13.90;99.90;;;;;;4985506;28;20034;-82
2021/09/14 07:22:24;;;;;;;10.55;8.50;;;14.00;99.90;;;;;;4986431;28;20045;-82
2021/09/14 07:24:50;;;;;;;13.13;8.38;;;14.10;99.90;;;;;;4952919;28;20100;-83
2021/09/14 07:27:16;;;;;;;11.80;7.88;;;14.10;99.90;;;;;;4969234;28;20046;-82
2021/09/14 07:29:41;;;;;;;11.45;8.02;;;14.20;99.90;;;;;;4952923;28;20037;-83
2021/09/14 07:32:07;;;;;;;11.73;7.00;;;14.20;99.90;;;;;;4953103;28;20034;-82
2021/09/14 07:34:34;;;;;;;8.93;7.22;;;14.30;99.90;;;;;;4953167;28;20035;-83
2021/09/14 07:37:00;;;;;;;9.98;7.15;;;14.40;99.90;;;;;;4953316;28;20031;-83
2021/09/14 07:39:26;;;;;;;13.02;8.18;;;14.50;99.90;;;;;;4968969;28;20077;-83
2021/09/14 07:41:52;;;;;;;8.10;6.03;;;14.70;99.90;;;;;;4969017;28;20046;-84
2021/09/14 07:46:47;;;;;;;14.88;8.30;;;14.90;99.90;;;;;;4946374;29;20074;-82
2021/09/14 07:49:14;;;;;;;11.25;8.00;;;15.00;99.90;;;;;;4946712;29;20042;-84
2021/09/14 07:51:40;;;;;;;12.00;7.97;;;15.10;99.90;;;;;;4946758;29;20039;-83
2021/09/14 07:54:05;;;;;;;9.48;7.15;;;15.20;99.90;;;;;;4977212;28;20027;-83
2021/09/14 07:56:31;;;;;;;8.38;6.60;;;15.50;99.90;;;;;;4981855;28;20098;-84
2021/09/14 07:58:57;;;;;;;12.45;8.20;;;15.50;99.90;;;;;;4965751;29;20035;-83
2021/09/14 08:01:22;;;;;;;12.57;8.88;;;15.30;99.90;;;;;;4949820;29;20047;-83
2021/09/14 08:03:48;;;;;;;12.48;9.13;;;15.30;99.90;;;;;;4966011;29;20039;-84
2021/09/14 08:06:14;;;;;;;13.32;10.45;;;15.50;99.90;;;;;;4965728;29;20035;-83
2021/09/14 08:08:40;;;;;;;12.68;8.75;;;15.50;99.90;;;;;;4966827;29;20031;-83
2021/09/14 08:11:06;;;;;;;12.98;9.68;;;15.60;99.90;;;;;;4949568;29;20167;-83
2021/09/14 08:13:31;;;;;;;13.48;10.02;;;15.60;99.90;;;;;;4949682;29;20045;-83
2021/09/14 08:15:57;;;;;;;13.93;9.90;;;15.60;99.90;;;;;;4981537;28;20046;-83
2021/09/14 08:18:22;;;;;;;12.85;8.85;;;15.90;99.90;;;;;;4965531;29;20087;-84
2021/09/14 08:20:48;;;;;;;9.75;7.50;;;16.10;99.90;;;;;;4966012;28;20043;-83
2021/09/14 08:23:13;;;;;;;9.43;6.57;;;16.30;99.90;;;;;;4969499;29;20066;-83
2021/09/14 08:25:41;;;;;;;10.98;6.60;;;16.50;99.90;;;;;;4969280;29;20031;-83
2021/09/14 08:28:06;;;;;;;10.25;6.57;;;16.40;99.90;;;;;;4953332;29;20046;-83
2021/09/14 08:30:32;;;;;;;8.85;6.75;;;16.70;99.90;;;;;;4969195;28;20038;-84
2021/09/14 08:32:58;;;;;;;9.60;7.00;;;16.90;99.90;;;;;;4970563;29;20066;-83
2021/09/14 08:35:23;;;;;;;11.65;7.47;;;16.90;99.90;;;;;;4953235;29;20113;-84
2021/09/14 08:37:49;;;;;;;10.02;7.47;;;17.00;99.90;;;;;;4969356;29;20118;-84
2021/09/14 08:40:15;;;;;;;7.95;6.95;;;17.20;99.90;;;;;;4969031;29;20075;-83
2021/09/14 08:42:41;;;;;;;7.68;6.28;;;17.40;99.90;;;;;;4953199;29;20043;-83
2021/09/14 08:45:09;;;;;;;10.27;7.40;;;17.50;99.90;;;;;;4944783;29;20052;-83
2021/09/14 08:47:37;;;;;;;8.70;6.93;;;17.70;99.90;;;;;;4981391;28;20059;-83
2021/09/14 08:50:04;;;;;;;8.82;6.90;;;17.90;99.90;;;;;;4965402;29;20040;-83
2021/09/14 08:52:31;;;;;;;9.45;6.93;;;17.90;99.90;;;;;;4983110;28;20042;-83
2021/09/14 08:54:57;;;;;;;9.02;6.93;;;18.00;99.90;;;;;;4968719;29;20039;-83
2021/09/14 08:57:23;;;;;;;8.82;6.70;;;18.20;99.90;;;;;;4985269;28;20031;-82
2021/09/14 08:59:48;;;;;;;7.75;4.40;;;18.30;99.90;;;;;;4952906;29;20035;-81
2021/09/14 09:02:16;;;;;;;7.43;6.13;;;18.40;99.90;;;;;;4968152;29;20506;-82
2021/09/14 09:05:04;;;;;;;7.05;5.70;;;18.50;99.90;;;;;;5001005;28;20035;-82
2021/09/14 09:07:34;;;;;;;6.85;5.65;;;18.90;99.90;;;;;;4968788;29;20035;-82
2021/09/14 09:10:14;;;;;;;7.80;5.68;;;18.90;99.90;;;;;;4984633;28;20035;-81
2021/09/14 09:12:46;;;;;;;5.60;4.55;;;19.10;99.90;;;;;;5001235;28;20039;-80
2021/09/14 09:15:33;;;;;;;8.90;6.47;;;19.30;99.90;;;;;;4984893;28;20031;-81
2021/09/14 09:18:01;;;;;;;7.53;5.95;;;19.50;99.90;;;;;;4968125;29;20046;-81
2021/09/14 09:20:27;;;;;;;7.75;5.70;;;19.60;99.90;;;;;;4984228;28;20031;-82
2021/09/14 09:22:58;;;;;;;10.27;7.38;;;19.50;99.90;;;;;;5000426;28;20039;-81
2021/09/14 09:25:24;;;;;;;6.95;5.90;;;19.40;99.90;;;;;;4984429;28;20475;-81
2021/09/14 09:28:02;;;;;;;7.38;6.68;;;19.50;99.90;;;;;;4967985;29;20063;-81
2021/09/14 09:30:33;;;;;;;7.88;7.07;;;19.80;99.90;;;;;;4968101;29;20077;-81
2021/09/14 09:33:02;;;;;;;7.70;6.60;;;19.80;99.90;;;;;;4967083;28;20065;-81
2021/09/14 09:35:33;;;;;;;7.75;5.97;;;19.90;99.90;;;;;;4951997;29;20035;-82
2021/09/14 09:38:00;;;;;;;8.75;6.25;;;19.90;99.90;;;;;;4969173;29;20128;-81
2021/09/14 09:40:35;;;;;;;6.82;5.57;;;19.90;99.90;;;;;;5000130;28;20439;-81
2021/09/14 09:43:07;;;;;;;5.85;5.13;;;20.30;99.90;;;;;;5000095;28;20039;-81
2021/09/14 09:45:44;;;;;;;12.18;7.40;;;20.30;99.90;;;;;;4988305;28;20492;-81
2021/09/14 09:48:11;;;;;;;7.18;6.05;;;20.10;99.90;;;;;;4964478;28;20044;-81
2021/09/14 09:50:37;;;;;;;8.95;7.28;;;20.20;99.90;;;;;;4964403;29;20032;-82
2021/09/14 09:53:06;;;;;;;9.80;6.45;;;20.30;99.90;;;;;;4970151;28;20066;-81
2021/09/14 09:55:33;;;;;;;7.68;6.60;;;20.30;99.90;;;;;;4969030;29;20031;-82
2021/09/14 09:57:59;;;;;;;8.15;5.65;;;20.60;99.90;;;;;;4967412;29;20031;-81
2021/09/14 10:00:25;;;;;;;7.25;6.38;;;20.90;99.90;;;;;;4968859;29;20027;-82
2021/09/14 10:02:58;;;;;;;8.05;5.43;;;20.80;99.90;;;;;;4968799;29;20039;-81
2021/09/14 10:05:31;;;;;;;6.03;4.63;;;20.90;99.90;;;;;;4983628;28;20050;-81
2021/09/14 10:08:05;;;;;;;7.28;4.82;;;21.20;99.90;;;;;;4967296;29;20035;-81
2021/09/14 10:10:39;;;;;;;7.20;6.35;;;21.30;99.90;;;;;;4967428;29;20062;-81
2021/09/14 10:13:06;;;;;;;7.57;6.07;;;21.40;99.90;;;;;;4967169;29;20463;-81
2021/09/14 10:15:40;;;;;;;7.45;6.03;;;21.60;99.90;;;;;;4983434;28;20159;-81
2021/09/14 10:18:07;;;;;;;6.82;5.75;;;21.50;99.90;;;;;;4983186;28;20039;-81
2021/09/14 10:20:37;;;;;;;5.30;4.47;;;21.70;99.90;;;;;;4968068;29;20023;-81
2021/09/14 10:23:06;;;;;;;4.55;4.10;;;22.00;99.90;;;;;;4999344;28;20058;-82
2021/09/14 10:25:33;;;;;;;5.90;4.57;;;21.60;99.90;;;;;;4967129;29;20043;-81
2021/09/14 10:28:10;;;;;;;4.40;3.58;;;21.70;99.90;;;;;;4966365;29;20071;-82
2021/09/14 10:30:36;;;;;;;3.70;2.83;;;22.30;99.90;;;;;;4967012;29;20259;-82
2021/09/14 10:33:02;;;;;;;4.35;3.92;;;22.70;99.90;;;;;;4966563;29;20039;-82
2021/09/14 10:35:35;;;;;;;5.95;5.35;;;22.70;99.90;;;;;;4982828;28;20095;-82
2021/09/14 10:38:12;;;;;;;4.93;4.43;;;22.50;99.90;;;;;;4968083;29;20043;-82
2021/09/14 10:40:49;;;;;;;7.28;4.72;;;22.40;99.90;;;;;;4982807;28;20036;-82
2021/09/14 10:46:33;;;;;;;4.40;4.00;;;22.50;99.90;;;;;;4889025;29;20064;-81
2021/09/14 10:48:58;;;;;;;5.22;4.72;;;22.50;99.90;;;;;;4873983;29;20049;-82
2021/09/14 10:51:24;;;;;;;4.75;4.22;;;22.60;99.90;;;;;;4873701;29;20051;-82
2021/09/14 10:53:57;;;;;;;4.90;4.47;;;22.50;99.90;;;;;;4896934;29;20043;-82
2021/09/14 10:56:24;;;;;;;5.88;4.60;;;22.50;99.90;;;;;;4911284;29;20046;-82
2021/09/14 10:58:50;;;;;;;6.68;5.20;;;22.80;99.90;;;;;;4911238;29;20043;-82
2021/09/14 11:01:23;;;;;;;7.50;4.65;;;22.80;99.90;;;;;;4895441;29;20473;-82
2021/09/14 11:03:50;;;;;;;5.15;4.20;;;22.70;99.90;;;;;;4926829;29;20107;-82
2021/09/14 11:06:16;;;;;;;4.30;3.78;;;23.10;99.90;;;;;;4927007;29;20120;-82
2021/09/14 11:08:45;;;;;;;5.35;3.08;;;23.20;99.90;;;;;;4926677;29;20028;-81
2021/09/14 11:11:17;;;;;;;5.63;3.67;;;23.30;99.90;;;;;;4926603;29;20044;-82
2021/09/14 11:13:42;;;;;;;4.05;3.17;;;23.40;99.90;;;;;;4910741;29;20087;-82
2021/09/14 11:16:08;;;;;;;4.07;2.92;;;23.80;99.90;;;;;;4895184;29;20051;-81
2021/09/14 11:18:35;;;;;;;4.10;2.70;;;23.70;99.90;;;;;;4926682;29;20045;-82
2021/09/14 11:21:20;;;;;;;5.45;3.38;;;23.60;99.90;;;;;;4910585;29;20069;-82
2021/09/14 11:23:48;;;;;;;4.05;2.63;;;23.50;99.90;;;;;;4946649;29;20043;-82
2021/09/14 11:26:16;;;;;;;4.22;2.97;;;23.50;99.90;;;;;;4965939;29;20503;-81
2021/09/14 11:28:54;;;;;;;5.70;2.42;;;23.80;99.90;;;;;;4967158;29;20039;-82
2021/09/14 11:31:20;;;;;;;3.05;2.75;;;23.80;99.90;;;;;;4949727;29;20045;-82
2021/09/14 11:33:46;;;;;;;3.17;2.20;;;23.70;99.90;;;;;;4965771;29;20091;-82
2021/09/14 11:36:12;;;;;;;4.47;2.92;;;23.80;99.90;;;;;;4965676;29;20061;-82
2021/09/14 11:38:38;;;;;;;2.85;2.33;;;23.80;99.90;;;;;;4965289;29;20174;-83
2021/09/14 11:41:13;;;;;;;3.50;3.00;;;23.70;99.90;;;;;;4981305;28;20039;-82
2021/09/14 11:44:00;;;;;;;3.67;2.60;;;23.70;99.90;;;;;;4965428;29;20031;-82
2021/09/14 11:46:26;;;;;;;3.42;2.53;;;23.80;99.90;;;;;;4964122;29;20051;-81
2021/09/14 11:49:05;;;;;;;4.03;2.35;;;24.00;99.90;;;;;;4948290;29;20458;-82
2021/09/14 11:51:38;;;;;;;2.33;1.80;;;24.00;99.90;;;;;;4963930;29;20042;-82
2021/09/14 11:54:11;;;;;;;2.85;2.05;;;24.20;99.90;;;;;;4947991;29;20094;-81
2021/09/14 11:56:37;;;;;;;3.83;1.70;;;24.10;99.90;;;;;;4947949;29;20055;-81
2021/09/14 11:59:13;;;;;;;4.50;2.55;;;23.70;99.90;;;;;;4964070;29;20031;-82
2021/09/14 12:01:41;;;;;;;4.10;2.05;;;23.30;99.90;;;;;;4964176;29;20051;-81
2021/09/14 12:04:15;;;;;;;2.33;1.73;;;23.50;99.90;;;;;;4980270;28;20043;-81
2021/09/14 12:06:48;;;;;;;2.28;1.58;;;23.60;99.90;;;;;;4964223;29;20035;-81
2021/09/14 12:09:16;;;;;;;3.00;1.70;;;23.50;99.90;;;;;;4964150;29;20027;-81
2021/09/14 12:11:42;;;;;;;2.58;2.05;;;23.60;99.90;;;;;;4964021;29;20617;-81
2021/09/14 12:14:11;;;;;;;3.38;2.00;;;23.40;99.90;;;;;;4979897;28;20270;-80
2021/09/14 12:16:39;;;;;;;3.45;2.33;;;23.50;99.90;;;;;;4980146;28;20062;-81
2021/09/14 12:19:06;;;;;;;3.47;2.15;;;23.90;99.90;;;;;;4963945;29;20036;-81
2021/09/14 12:21:32;;;;;;;3.63;2.17;;;24.00;99.90;;;;;;4963730;29;20518;-81
2021/09/14 12:23:59;;;;;;;2.40;2.20;;;24.00;99.90;;;;;;4951541;29;20081;-81
2021/09/14 12:26:37;;;;;;;3.72;1.70;;;24.00;99.90;;;;;;4947230;29;20058;-82
2021/09/14 12:29:03;;;;;;;2.80;1.70;;;24.00;99.90;;;;;;4946014;29;20508;-81
2021/09/14 12:31:28;;;;;;;3.90;2.20;;;24.10;99.90;;;;;;4945865;29;20039;-81
2021/09/14 12:33:54;;;;;;;6.00;3.15;;;24.10;99.90;;;;;;4930186;29;20050;-81
2021/09/14 12:36:20;;;;;;;3.72;1.83;;;24.10;99.90;;;;;;4961840;29;20028;-80
2021/09/14 12:38:45;;;;;;;3.75;2.72;;;24.40;99.90;;;;;;4945750;29;20479;-82
2021/09/14 12:41:14;;;;;;;2.85;1.85;;;24.50;99.90;;;;;;4961511;29;20103;-80
2021/09/14 12:43:59;;;;;;;4.03;1.75;;;24.60;99.90;;;;;;4961867;29;20040;-82
2021/09/14 12:46:25;;;;;;;3.92;2.42;;;24.60;99.90;;;;;;4870350;29;20136;-81
2021/09/14 12:48:51;;;;;;;3.33;2.20;;;24.50;99.90;;;;;;4872461;29;20077;-81
2021/09/14 12:51:16;;;;;;;2.72;1.70;;;24.50;99.90;;;;;;4891205;29;20052;-81
2021/09/14 12:53:42;;;;;;;3.40;2.63;;;24.30;99.90;;;;;;4891086;29;20127;-82
2021/09/14 12:56:09;;;;;;;2.60;1.65;;;24.00;99.90;;;;;;4891209;29;20036;-81
2021/09/14 12:58:35;;;;;;;3.60;2.53;;;24.20;99.90;;;;;;4891104;29;20072;-81
2021/09/14 13:01:01;;;;;;;4.68;1.92;;;24.20;99.90;;;;;;4890961;29;20071;-82
2021/09/14 13:03:26;;;;;;;2.65;1.75;;;24.30;99.90;;;;;;4891272;29;20037;-82
2021/09/14 13:05:52;;;;;;;3.92;2.33;;;24.40;99.90;;;;;;4891169;29;20036;-82
2021/09/14 13:08:18;;;;;;;3.45;2.55;;;24.30;99.90;;;;;;4892289;29;20512;-82
2021/09/14 13:10:44;;;;;;;3.80;3.42;;;24.30;99.90;;;;;;4894434;29;20048;-81
2021/09/14 13:18:40;;;;;;;2.13;1.48;;;24.00;99.90;;;;;;4910137;29;20101;-82
2021/09/14 13:21:05;;;;;;;2.95;2.03;;;24.00;99.90;;;;;;4894137;29;20040;-81
2021/09/14 13:23:32;;;;;;;3.22;1.63;;;23.90;99.90;;;;;;4914158;29;20075;-81
2021/09/14 13:25:57;;;;;;;2.80;1.80;;;23.80;99.90;;;;;;4948745;29;20031;-81
2021/09/14 13:28:23;;;;;;;2.90;2.40;;;23.80;99.90;;;;;;4950240;29;20035;-81
2021/09/14 13:30:49;;;;;;;3.40;2.25;;;23.80;99.90;;;;;;4948762;29;20090;-81
2021/09/14 13:33:15;;;;;;;2.63;1.77;;;23.60;99.90;;;;;;4980825;28;20038;-82
2021/09/14 13:35:40;;;;;;;2.78;1.83;;;23.70;99.90;;;;;;4964739;29;20468;-81
2021/09/14 13:38:06;;;;;;;1.90;1.30;;;23.70;99.90;;;;;;4964684;29;20050;-81
2021/09/14 13:40:33;;;;;;;4.45;1.30;;;23.70;99.90;;;;;;4964485;29;20028;-81
2021/09/14 13:43:00;;;;;;;2.20;1.45;;;23.80;99.90;;;;;;4964548;29;20057;-81
2021/09/14 13:48:11;;;;;;;1.88;1.20;;;23.80;99.90;;;;;;4949819;29;20032;-81
2021/09/14 13:50:38;;;;;;;2.42;1.20;;;23.80;99.90;;;;;;4964442;29;20040;-81
2021/09/14 13:53:04;;;;;;;2.92;2.22;;;23.80;99.90;;;;;;4955506;29;20019;-81
2021/09/14 13:55:29;;;;;;;2.90;2.10;;;23.70;99.90;;;;;;4968913;29;20402;-81